Time;durP1;ratioP1;P1;durP2;ratioP2;P2;SDS_P1;SDS_P2;PMS_P1;PMS_P2;Temp;Humidity;BMP_temperature;BMP_pressure;BME280_temperature;BME280_humidity;BME280_pressure;Samples;Min_cycle;Max_cycle;Signal;HPM_P1;HPM_P2
2022/09/12 00:21:59;;;;;;;11.10;10.07;;;13.70;99.90;;;;;;4803228;29;20399;-67
2022/09/12 00:28:56;;;;;;;11.18;9.95;;;13.60;99.90;;;;;;4795871;29;20134;-67
2022/09/12 00:31:48;;;;;;;11.27;10.27;;;13.60;99.90;;;;;;4780982;29;20080;-67
2022/09/12 00:39:11;;;;;;;11.50;10.45;;;13.60;99.90;;;;;;4800453;29;20113;-67
2022/09/12 00:41:38;;;;;;;11.82;10.82;;;13.50;99.90;;;;;;4777521;29;20051;-67
2022/09/12 00:44:22;;;;;;;13.82;12.35;;;13.50;99.90;;;;;;4786507;29;20091;-67
2022/09/12 00:47:03;;;;;;;13.02;11.75;;;13.50;99.90;;;;;;4803771;29;20054;-67
2022/09/12 00:49:46;;;;;;;13.30;12.00;;;13.50;99.90;;;;;;4794762;29;20053;-67
2022/09/12 00:52:17;;;;;;;11.88;10.68;;;13.50;99.90;;;;;;4786006;29;20055;-67
2022/09/12 00:55:14;;;;;;;11.70;10.70;;;13.50;99.90;;;;;;4784887;29;20047;-67
2022/09/12 00:57:48;;;;;;;12.60;11.32;;;13.40;99.90;;;;;;4794604;29;20053;-67
2022/09/12 01:00:17;;;;;;;13.70;12.30;;;13.40;99.90;;;;;;4801750;29;20054;-67
2022/09/12 01:02:55;;;;;;;13.05;11.75;;;13.40;99.90;;;;;;4783906;29;20062;-67
2022/09/12 01:05:22;;;;;;;13.80;12.50;;;13.40;99.90;;;;;;4785540;29;20051;-67
2022/09/12 01:07:50;;;;;;;14.52;12.60;;;13.40;99.90;;;;;;4802835;29;20486;-67
2022/09/12 01:10:17;;;;;;;16.77;13.32;;;13.40;99.90;;;;;;4787740;29;20579;-67
2022/09/12 01:12:43;;;;;;;16.13;14.50;;;13.40;99.90;;;;;;4804959;29;20055;-67
2022/09/12 01:15:09;;;;;;;15.00;13.52;;;13.40;99.90;;;;;;4789102;29;20385;-67
2022/09/12 01:17:56;;;;;;;14.63;13.18;;;13.40;99.90;;;;;;4821274;29;20094;-67
2022/09/12 01:20:43;;;;;;;15.38;13.90;;;13.40;99.90;;;;;;4806433;29;20545;-67
2022/09/12 01:23:30;;;;;;;16.70;15.07;;;13.40;99.90;;;;;;4823035;29;20137;-67
2022/09/12 01:26:16;;;;;;;16.17;14.52;;;13.40;99.90;;;;;;4820255;29;20050;-67
2022/09/12 01:29:01;;;;;;;16.67;14.93;;;13.40;99.90;;;;;;4807212;29;20061;-67
2022/09/12 01:31:53;;;;;;;15.35;13.85;;;13.30;99.90;;;;;;4796041;29;20086;-67
2022/09/12 01:34:45;;;;;;;16.77;15.13;;;13.30;99.90;;;;;;4805475;29;20058;-67
2022/09/12 01:37:23;;;;;;;18.23;16.33;;;13.30;99.90;;;;;;4821567;29;20065;-67
2022/09/12 01:40:17;;;;;;;17.88;15.80;;;13.30;99.90;;;;;;4809751;29;20554;-67
2022/09/12 01:42:55;;;;;;;15.43;13.82;;;13.30;99.90;;;;;;4807914;29;20192;-67
2022/09/12 01:45:42;;;;;;;17.42;15.63;;;13.30;99.90;;;;;;4808510;29;20472;-67
2022/09/12 01:48:30;;;;;;;19.95;17.52;;;13.30;99.90;;;;;;4809227;29;20054;-67
2022/09/12 01:51:05;;;;;;;18.75;16.83;;;13.20;99.90;;;;;;4808511;29;20062;-67
2022/09/12 01:53:37;;;;;;;18.73;16.75;;;13.20;99.90;;;;;;4800973;29;20445;-67
2022/09/12 01:56:13;;;;;;;19.15;17.30;;;13.20;99.90;;;;;;4809899;29;20038;-67
2022/09/12 01:58:46;;;;;;;20.17;17.55;;;13.20;99.90;;;;;;4824883;29;20046;-67
2022/09/12 02:01:26;;;;;;;18.95;16.98;;;13.20;99.90;;;;;;4793209;29;20382;-67
2022/09/12 02:04:07;;;;;;;17.65;15.85;;;13.20;99.90;;;;;;4807155;29;20387;-67
2022/09/12 02:06:41;;;;;;;21.15;18.95;;;13.20;99.90;;;;;;4823493;29;20099;-67
2022/09/12 02:09:26;;;;;;;19.60;17.70;;;13.20;99.90;;;;;;4824351;29;20060;-67
2022/09/12 02:11:57;;;;;;;19.75;17.70;;;13.20;99.90;;;;;;4825057;29;20046;-67
2022/09/12 02:14:26;;;;;;;19.73;17.67;;;13.20;99.90;;;;;;4823234;29;20083;-67
2022/09/12 02:17:09;;;;;;;21.65;19.42;;;13.30;99.90;;;;;;4807666;29;20133;-67
2022/09/12 02:19:51;;;;;;;20.58;18.40;;;13.20;99.90;;;;;;4823610;29;20093;-67
2022/09/12 02:22:20;;;;;;;20.80;18.02;;;13.10;99.90;;;;;;4815844;29;20050;-67
2022/09/12 02:24:51;;;;;;;20.75;18.60;;;13.10;99.90;;;;;;4816735;29;20038;-67
2022/09/12 02:27:24;;;;;;;22.20;19.90;;;13.10;99.90;;;;;;4808386;29;20068;-67
2022/09/12 02:29:51;;;;;;;21.70;19.38;;;13.10;99.90;;;;;;4806153;29;20054;-67
2022/09/12 02:32:35;;;;;;;23.23;20.20;;;13.10;99.90;;;;;;4808580;29;20050;-67
2022/09/12 02:35:06;;;;;;;19.65;17.60;;;13.10;99.90;;;;;;4804593;29;20050;-67
2022/09/12 02:37:58;;;;;;;26.05;21.40;;;13.10;99.90;;;;;;4818839;29;20047;-67
2022/09/12 02:40:24;;;;;;;26.80;21.45;;;13.10;99.90;;;;;;4791233;29;20050;-67
2022/09/12 02:42:50;;;;;;;23.77;20.67;;;13.10;99.90;;;;;;4798367;29;20412;-67
2022/09/12 02:45:16;;;;;;;24.98;22.27;;;13.00;99.90;;;;;;4792813;29;20465;-67
2022/09/12 02:47:57;;;;;;;23.95;21.00;;;13.00;99.90;;;;;;4807529;29;20061;-67
2022/09/12 02:50:23;;;;;;;28.60;23.45;;;13.00;99.90;;;;;;4808410;29;20081;-67
2022/09/12 02:52:52;;;;;;;26.77;22.45;;;13.00;99.90;;;;;;4821956;29;20081;-67
2022/09/12 02:55:18;;;;;;;25.17;21.73;;;13.00;99.90;;;;;;4823914;29;20095;-67
2022/09/12 02:57:43;;;;;;;26.10;21.58;;;13.00;99.90;;;;;;4807309;29;20451;-67
2022/09/12 03:00:09;;;;;;;27.50;21.75;;;13.00;99.90;;;;;;4808068;29;20046;-67
2022/09/12 03:02:59;;;;;;;27.25;22.80;;;13.00;99.90;;;;;;4819321;29;20130;-67
2022/09/12 03:05:33;;;;;;;27.58;22.73;;;13.00;99.90;;;;;;4811655;29;20058;-67
2022/09/12 03:08:36;;;;;;;27.50;22.52;;;12.90;99.90;;;;;;4817707;29;20057;-67
2022/09/12 03:11:11;;;;;;;;;;;12.90;99.90;;;;;;4823413;29;20444;-67
2022/09/12 03:14:25;;;;;;;25.00;20.85;;;12.90;99.90;;;;;;4806396;29;19924;-67
2022/09/12 03:17:25;;;;;;;24.13;19.67;;;12.90;99.90;;;;;;4790318;29;20050;-67
2022/09/12 03:19:59;;;;;;;28.25;22.70;;;12.80;99.90;;;;;;4797945;29;20125;-67
2022/09/12 03:22:46;;;;;;;26.10;22.50;;;12.80;99.90;;;;;;4795771;29;20059;-67
2022/09/12 03:25:17;;;;;;;32.80;24.90;;;12.80;99.90;;;;;;4820862;29;20046;-67
2022/09/12 03:28:06;;;;;;;27.98;21.50;;;12.80;99.90;;;;;;4807793;29;20100;-67
2022/09/12 03:30:38;;;;;;;27.98;22.65;;;12.80;99.90;;;;;;4800077;29;20111;-67
2022/09/12 03:33:03;;;;;;;25.98;22.30;;;12.80;99.90;;;;;;4805315;29;20074;-67
2022/09/12 03:35:29;;;;;;;24.25;20.55;;;12.80;99.90;;;;;;4819754;29;20081;-67
2022/09/12 03:37:54;;;;;;;26.80;22.70;;;12.70;99.90;;;;;;4782310;29;20107;-67
2022/09/12 03:40:20;;;;;;;28.30;22.83;;;12.70;99.90;;;;;;4803197;29;20050;-67
2022/09/12 03:42:45;;;;;;;32.40;24.60;;;12.70;99.90;;;;;;4807363;29;20054;-67
2022/09/12 03:45:11;;;;;;;28.27;22.27;;;12.70;99.90;;;;;;4807371;29;20082;-67
2022/09/12 03:47:37;;;;;;;29.27;22.77;;;12.70;99.90;;;;;;4805752;29;20556;-67
2022/09/12 03:50:03;;;;;;;29.23;23.75;;;12.70;99.90;;;;;;4806363;29;20043;-67
2022/09/12 03:52:29;;;;;;;29.08;22.85;;;12.60;99.90;;;;;;4821938;29;20838;-67
2022/09/12 03:54:55;;;;;;;29.70;24.23;;;12.60;99.90;;;;;;4822535;29;20070;-67
2022/09/12 03:57:20;;;;;;;30.65;24.25;;;12.70;99.90;;;;;;4822133;29;20506;-67
2022/09/12 03:59:48;;;;;;;27.88;22.38;;;12.70;99.90;;;;;;4806875;29;20054;-67
2022/09/12 04:02:14;;;;;;;28.58;22.98;;;12.60;99.90;;;;;;4808313;29;20054;-67
2022/09/12 04:04:42;;;;;;;27.52;22.40;;;12.60;99.90;;;;;;4813834;29;20103;-67
2022/09/12 04:07:10;;;;;;;37.63;24.60;;;12.60;99.90;;;;;;4821829;29;20385;-68
2022/09/12 04:09:36;;;;;;;33.03;24.70;;;12.60;99.90;;;;;;4803131;29;20046;-67
2022/09/12 04:12:02;;;;;;;32.10;25.38;;;12.60;99.90;;;;;;4791184;29;20056;-67
2022/09/12 04:14:27;;;;;;;29.52;24.50;;;12.60;99.90;;;;;;4810168;29;20116;-67
2022/09/12 04:16:53;;;;;;;37.10;26.08;;;12.60;99.90;;;;;;4805244;29;20054;-67
2022/09/12 04:19:19;;;;;;;34.95;24.83;;;12.60;99.90;;;;;;4793616;29;20103;-67
2022/09/12 04:21:44;;;;;;;32.40;25.40;;;12.60;99.90;;;;;;4806988;29;20050;-67
2022/09/12 04:24:10;;;;;;;32.45;24.10;;;12.60;99.90;;;;;;4794927;29;20050;-67
2022/09/12 04:26:35;;;;;;;33.65;24.80;;;12.60;99.90;;;;;;4808394;29;20054;-67
2022/09/12 04:29:01;;;;;;;33.75;26.42;;;12.60;99.90;;;;;;4810952;29;20065;-67
2022/09/12 04:31:26;;;;;;;37.88;27.23;;;12.60;99.90;;;;;;4806707;29;20337;-67
2022/09/12 04:33:57;;;;;;;32.67;24.55;;;12.60;99.90;;;;;;4820121;29;20359;-67
2022/09/12 04:36:24;;;;;;;33.40;25.52;;;12.50;99.90;;;;;;4774138;29;20050;-68
2022/09/12 04:38:50;;;;;;;32.90;25.70;;;12.50;99.90;;;;;;4813669;29;20050;-67
2022/09/12 04:41:18;;;;;;;31.35;24.88;;;12.50;99.90;;;;;;4813801;29;20099;-67
2022/09/12 04:43:45;;;;;;;32.25;24.75;;;12.50;99.90;;;;;;4814022;29;20078;-67
2022/09/12 04:46:14;;;;;;;36.50;26.73;;;12.50;99.90;;;;;;4799940;29;20057;-67
2022/09/12 04:48:40;;;;;;;30.70;24.65;;;12.50;99.90;;;;;;4790896;29;20502;-67
2022/09/12 04:51:26;;;;;;;34.83;25.10;;;12.50;99.90;;;;;;4818081;29;20043;-67
2022/09/12 04:54:19;;;;;;;35.95;25.30;;;12.50;99.90;;;;;;4799497;29;20099;-67
2022/09/12 04:57:09;;;;;;;38.83;25.48;;;12.50;99.90;;;;;;4800303;29;20046;-67
2022/09/12 04:59:35;;;;;;;41.30;27.20;;;12.50;99.90;;;;;;4802257;29;20051;-68
2022/09/12 05:02:50;;;;;;;38.55;27.58;;;12.50;99.90;;;;;;4777682;29;20043;-67
2022/09/12 05:05:16;;;;;;;39.67;27.40;;;12.50;99.90;;;;;;4786312;29;20059;-67
2022/09/12 05:08:31;;;;;;;36.53;27.33;;;12.60;99.90;;;;;;4786862;29;20089;-67
2022/09/12 05:11:48;;;;;;;39.75;27.88;;;12.60;99.90;;;;;;4788199;29;20090;-67
2022/09/12 05:15:03;;;;;;;37.25;26.58;;;12.70;99.90;;;;;;4788410;29;20374;-67
2022/09/12 05:17:29;;;;;;;37.20;26.48;;;12.70;99.90;;;;;;4806579;29;20119;-67
2022/09/12 05:24:00;;;;;;;39.78;27.10;;;12.90;99.90;;;;;;4793078;29;20087;-68
2022/09/12 05:26:26;;;;;;;34.75;25.88;;;13.00;99.90;;;;;;4803773;29;20133;-67
2022/09/12 05:28:53;;;;;;;39.83;28.38;;;13.10;99.90;;;;;;4820051;29;20053;-67
2022/09/12 05:35:51;;;;;;;39.80;27.20;;;13.20;99.90;;;;;;4824318;29;20098;-68
2022/09/12 05:38:18;;;;;;;43.25;29.48;;;13.30;99.90;;;;;;4805345;29;20164;-67
2022/09/12 05:53:29;;;;;;;41.22;27.55;;;13.70;99.90;;;;;;4810871;29;20164;-67
2022/09/12 06:00:26;;;;;;;39.95;28.60;;;13.80;99.90;;;;;;4824703;29;20033;-67
2022/09/12 06:02:52;;;;;;;40.97;28.83;;;13.90;99.90;;;;;;4809597;29;20047;-67
2022/09/12 06:09:24;;;;;;;45.00;30.13;;;14.00;99.90;;;;;;4821310;29;20095;-68
2022/09/12 06:15:31;;;;;;;42.45;28.15;;;14.10;99.90;;;;;;4824142;29;20058;-67
2022/09/12 06:17:57;;;;;;;43.47;30.52;;;14.10;99.90;;;;;;4807143;29;20416;-68
2022/09/12 06:20:48;;;;;;;43.53;30.17;;;14.10;99.90;;;;;;4808016;29;20057;-67
2022/09/12 06:23:45;;;;;;;42.40;29.50;;;14.20;99.90;;;;;;4824128;29;20054;-67
2022/09/12 06:26:10;;;;;;;40.10;29.17;;;14.20;99.90;;;;;;4823330;29;20050;-68
2022/09/12 06:28:39;;;;;;;41.60;30.02;;;14.20;99.90;;;;;;4811166;29;20081;-68
2022/09/12 06:31:07;;;;;;;45.60;30.23;;;14.30;99.90;;;;;;4824026;29;20057;-68
2022/09/12 06:33:35;;;;;;;39.15;28.13;;;14.40;99.90;;;;;;4823522;29;20065;-68
2022/09/12 06:36:06;;;;;;;38.97;28.83;;;14.40;99.90;;;;;;4825082;29;20058;-67
2022/09/12 06:38:33;;;;;;;39.05;27.58;;;14.40;99.90;;;;;;4817849;29;20172;-67
2022/09/12 06:40:59;;;;;;;40.45;29.38;;;14.50;99.90;;;;;;4823995;29;20133;-68
2022/09/12 06:43:26;;;;;;;38.65;27.00;;;14.60;99.90;;;;;;4824455;29;20054;-68
2022/09/12 06:45:51;;;;;;;35.92;26.77;;;14.60;99.90;;;;;;4824973;29;20054;-68
2022/09/12 06:48:17;;;;;;;36.05;27.63;;;14.60;99.90;;;;;;4810618;29;20156;-68
2022/09/12 06:50:43;;;;;;;36.83;27.85;;;14.70;99.90;;;;;;4800872;29;20392;-68
2022/09/12 06:53:08;;;;;;;40.42;27.48;;;14.70;99.90;;;;;;4823209;29;20124;-68
2022/09/12 06:55:34;;;;;;;38.78;28.27;;;14.80;99.90;;;;;;4794913;29;20080;-68
2022/09/12 06:58:00;;;;;;;38.20;28.27;;;14.80;99.90;;;;;;4790482;29;20474;-68
2022/09/12 07:00:29;;;;;;;35.10;26.42;;;14.80;99.90;;;;;;4777085;29;20557;-68
2022/09/12 07:02:57;;;;;;;36.92;27.80;;;14.90;99.90;;;;;;4792952;29;20042;-68
2022/09/12 07:05:23;;;;;;;38.20;28.52;;;14.90;99.90;;;;;;4808138;29;20123;-67
2022/09/12 07:07:48;;;;;;;37.80;27.50;;;15.00;99.90;;;;;;4807925;29;20484;-68
2022/09/12 07:10:14;;;;;;;36.83;26.95;;;15.00;99.90;;;;;;4808263;29;20058;-68
2022/09/12 07:12:39;;;;;;;40.25;28.65;;;15.10;99.90;;;;;;4807580;29;20053;-68
2022/09/12 07:15:05;;;;;;;39.67;27.88;;;15.10;99.90;;;;;;4807561;29;20050;-69
2022/09/12 07:17:31;;;;;;;36.97;27.70;;;15.20;99.90;;;;;;4807736;29;20125;-68
2022/09/12 07:19:56;;;;;;;38.78;28.23;;;15.20;99.90;;;;;;4807767;29;20046;-68
2022/09/12 07:22:22;;;;;;;40.88;29.10;;;15.30;99.90;;;;;;4808019;29;20062;-68
2022/09/12 07:24:48;;;;;;;39.90;28.27;;;15.30;99.90;;;;;;4813341;29;20047;-68
2022/09/12 07:27:13;;;;;;;37.53;26.80;;;15.40;99.90;;;;;;4790464;29;20059;-68
2022/09/12 07:29:39;;;;;;;35.70;26.70;;;15.40;99.90;;;;;;4790689;29;20481;-68
2022/09/12 07:32:05;;;;;;;35.22;25.90;;;15.50;99.90;;;;;;4796996;29;20050;-69
2022/09/12 07:34:31;;;;;;;34.75;24.48;;;15.50;99.90;;;;;;4824597;29;20356;-68
2022/09/12 07:36:57;;;;;;;38.67;27.27;;;15.60;99.90;;;;;;4807341;29;20456;-68
2022/09/12 07:39:23;;;;;;;33.40;25.05;;;15.70;99.90;;;;;;4824715;29;20079;-67
2022/09/12 07:41:48;;;;;;;31.55;25.75;;;15.80;99.90;;;;;;4807579;29;20046;-68
2022/09/12 07:44:14;;;;;;;34.45;25.10;;;15.90;99.90;;;;;;4824502;29;20054;-68
2022/09/12 07:46:40;;;;;;;34.53;25.88;;;16.00;99.90;;;;;;4824411;29;20121;-68
2022/09/12 07:49:06;;;;;;;30.95;23.67;;;16.10;99.90;;;;;;4824367;29;20407;-68
2022/09/12 07:51:32;;;;;;;32.60;24.85;;;16.20;99.90;;;;;;4822776;29;20075;-68
2022/09/12 07:53:57;;;;;;;31.35;23.55;;;16.40;99.90;;;;;;4824190;29;20042;-68
2022/09/12 07:56:24;;;;;;;33.10;24.52;;;16.50;99.90;;;;;;4824134;29;20137;-68
2022/09/12 07:58:50;;;;;;;30.67;24.25;;;16.60;99.90;;;;;;4807902;29;20080;-68
2022/09/12 08:01:18;;;;;;;29.85;23.55;;;16.60;99.90;;;;;;4807942;29;20396;-68
2022/09/12 08:03:46;;;;;;;29.50;23.48;;;16.60;99.90;;;;;;4824430;29;20046;-68
2022/09/12 08:06:20;;;;;;;30.88;23.58;;;16.70;99.90;;;;;;4807025;29;20110;-68
2022/09/12 08:08:47;;;;;;;29.70;23.13;;;16.90;99.90;;;;;;4807873;29;20484;-68
2022/09/12 08:11:16;;;;;;;31.08;23.42;;;16.80;99.90;;;;;;4814881;29;20039;-68
2022/09/12 08:13:42;;;;;;;29.35;23.33;;;16.80;99.90;;;;;;4806023;29;20099;-68
2022/09/12 08:16:13;;;;;;;30.45;23.80;;;16.90;99.90;;;;;;4814558;29;20050;-68
2022/09/12 08:18:39;;;;;;;28.70;23.40;;;16.90;99.90;;;;;;4823675;29;20050;-68
2022/09/12 08:21:13;;;;;;;29.08;22.65;;;17.00;99.90;;;;;;4820920;29;20046;-68
2022/09/12 08:23:39;;;;;;;27.77;22.35;;;17.00;99.90;;;;;;4801735;29;20502;-68
2022/09/12 08:26:05;;;;;;;27.90;22.50;;;17.00;99.90;;;;;;4818753;29;20133;-68
2022/09/12 08:28:32;;;;;;;28.98;22.65;;;17.10;99.90;;;;;;4807923;29;20078;-67
2022/09/12 08:31:02;;;;;;;30.30;22.27;;;17.20;99.90;;;;;;4805519;29;20408;-67
2022/09/12 08:50:03;;;;;;;28.83;22.77;;;17.80;99.90;;;;;;4813202;29;20041;-67
2022/09/12 08:52:36;;;;;;;33.63;23.63;;;18.00;99.90;;;;;;4816536;29;20192;-68
2022/09/12 08:55:05;;;;;;;30.60;23.40;;;18.10;99.90;;;;;;4810066;29;20058;-68
2022/09/12 08:57:32;;;;;;;32.47;24.80;;;18.20;99.90;;;;;;4827102;29;20054;-67
2022/09/12 08:59:57;;;;;;;35.17;24.73;;;18.40;99.90;;;;;;4826055;29;20050;-68
2022/09/12 09:02:52;;;;;;;30.42;22.85;;;18.60;99.90;;;;;;4826840;29;20460;-67
2022/09/12 09:05:21;;;;;;;31.88;24.05;;;18.70;99.90;;;;;;4810473;29;20380;-67
2022/09/12 09:08:17;;;;;;;29.10;22.15;;;18.90;99.90;;;;;;4825163;29;20360;-68
2022/09/12 09:11:12;;;;;;;29.15;23.27;;;19.10;99.90;;;;;;4807737;29;20084;-68
2022/09/12 09:16:38;;;;;;;;;;;19.30;99.90;;;;;;4808281;29;20078;-67
2022/09/12 09:19:20;;;;;;;35.20;25.52;;;19.30;99.90;;;;;;4824456;29;19917;-66
2022/09/12 09:21:56;;;;;;;33.88;27.40;;;19.40;99.90;;;;;;4808405;29;20050;-66
2022/09/12 09:24:36;;;;;;;36.55;26.08;;;19.40;99.90;;;;;;4808804;29;20070;-67
2022/09/12 09:27:08;;;;;;;39.60;28.80;;;19.50;99.90;;;;;;4824721;29;20233;-67
2022/09/12 09:29:44;;;;;;;;;;;19.50;99.90;;;;;;4826915;29;20157;-68
2022/09/12 09:32:16;;;;;;;36.60;27.33;;;19.60;99.90;;;;;;4809372;29;19924;-68
2022/09/12 09:34:42;;;;;;;38.47;27.50;;;19.80;99.90;;;;;;4807604;29;20042;-68
2022/09/12 09:37:18;;;;;;;39.22;28.50;;;19.90;99.90;;;;;;4791520;29;20043;-68
2022/09/12 09:40:05;;;;;;;37.60;28.20;;;20.00;99.90;;;;;;4808553;29;20055;-68
2022/09/12 09:42:55;;;;;;;37.20;28.38;;;20.20;99.90;;;;;;4808082;29;20058;-68
2022/09/12 09:45:23;;;;;;;37.63;28.75;;;20.20;99.90;;;;;;4807802;29;20072;-66
2022/09/12 09:48:00;;;;;;;37.88;26.85;;;20.30;99.90;;;;;;4818829;29;20066;-68
2022/09/12 09:50:26;;;;;;;37.03;27.00;;;20.30;99.90;;;;;;4809577;29;20095;-68
2022/09/12 09:52:55;;;;;;;35.13;26.63;;;20.40;99.90;;;;;;4824519;29;20054;-68
2022/09/12 09:55:26;;;;;;;35.47;25.67;;;20.40;99.90;;;;;;4826347;29;20058;-67
2022/09/12 09:57:52;;;;;;;36.70;25.23;;;20.60;99.90;;;;;;4809451;29;20052;-67
2022/09/12 10:00:35;;;;;;;33.45;26.00;;;20.70;99.90;;;;;;4825075;29;20418;-68
2022/09/12 10:03:11;;;;;;;33.95;24.75;;;20.80;99.90;;;;;;4824700;29;20046;-67
2022/09/12 10:05:53;;;;;;;35.47;24.40;;;21.00;99.90;;;;;;4807181;29;20093;-67
2022/09/12 10:08:22;;;;;;;33.38;24.27;;;21.00;99.90;;;;;;4825036;29;20073;-68
2022/09/12 10:11:00;;;;;;;28.58;22.73;;;21.00;99.90;;;;;;4825249;29;20507;-67
2022/09/12 10:13:50;;;;;;;29.58;23.63;;;21.10;99.90;;;;;;4806783;29;20058;-67
2022/09/12 10:16:19;;;;;;;31.92;22.63;;;21.10;99.90;;;;;;4820097;29;20071;-67
2022/09/12 10:18:45;;;;;;;26.98;22.35;;;21.20;99.90;;;;;;4806639;29;20046;-67
2022/09/12 10:21:46;;;;;;;26.20;22.77;;;21.10;99.90;;;;;;4808238;29;20046;-67
2022/09/12 10:24:21;;;;;;;26.15;22.33;;;21.10;99.90;;;;;;4784597;29;20110;-68
2022/09/12 10:26:55;;;;;;;28.83;23.35;;;21.20;99.90;;;;;;4824147;29;20042;-68
2022/09/12 10:29:27;;;;;;;27.92;21.83;;;21.20;99.90;;;;;;4818831;29;20059;-68
2022/09/12 10:31:57;;;;;;;25.85;20.85;;;21.30;99.90;;;;;;4809319;29;20065;-67
2022/09/12 10:34:33;;;;;;;29.42;21.55;;;21.40;99.90;;;;;;4808887;29;20395;-68
2022/09/12 10:37:03;;;;;;;23.02;19.67;;;21.50;99.90;;;;;;4824751;29;20556;-68
2022/09/12 10:39:30;;;;;;;26.58;20.77;;;21.60;99.90;;;;;;4825327;29;20039;-67
2022/09/12 10:41:56;;;;;;;26.45;21.17;;;21.80;99.90;;;;;;4808812;29;20050;-67
2022/09/12 10:44:30;;;;;;;27.52;21.13;;;21.80;99.90;;;;;;4807805;29;20160;-68
2022/09/12 10:46:57;;;;;;;27.35;18.98;;;21.90;99.90;;;;;;4790258;29;20476;-67
2022/09/12 10:49:38;;;;;;;25.13;19.23;;;22.00;99.90;;;;;;4801528;29;20114;-68
2022/09/12 10:52:33;;;;;;;20.60;17.73;;;22.10;99.90;;;;;;4823617;29;20143;-67
2022/09/12 10:54:59;;;;;;;23.60;18.55;;;22.00;99.90;;;;;;4794684;29;20046;-67
2022/09/12 10:57:48;;;;;;;23.48;18.48;;;21.80;99.90;;;;;;4825170;29;20376;-67
2022/09/12 11:00:16;;;;;;;21.60;17.23;;;22.00;99.90;;;;;;4823312;29;20055;-67
2022/09/12 11:03:29;;;;;;;25.30;20.80;;;22.00;99.90;;;;;;4824435;29;20050;-67
2022/09/12 11:05:59;;;;;;;23.90;18.73;;;22.00;99.90;;;;;;4790396;29;20058;-67
2022/09/12 11:08:48;;;;;;;22.10;18.00;;;22.00;99.90;;;;;;4824356;29;20050;-68
2022/09/12 11:11:28;;;;;;;19.05;15.48;;;22.00;99.90;;;;;;4808055;29;20050;-67
2022/09/12 11:14:15;;;;;;;21.25;17.17;;;22.10;99.90;;;;;;4806926;29;20054;-68
2022/09/12 11:16:54;;;;;;;22.40;16.65;;;22.10;99.90;;;;;;4807599;29;20129;-67
2022/09/12 11:19:42;;;;;;;22.92;18.27;;;22.30;99.90;;;;;;4806581;29;20062;-68
2022/09/12 11:22:17;;;;;;;19.90;17.25;;;22.40;99.90;;;;;;4797158;29;20479;-68
2022/09/12 11:25:14;;;;;;;20.48;16.75;;;22.50;99.90;;;;;;4808209;29;20058;-68
2022/09/12 11:28:13;;;;;;;21.20;16.58;;;22.60;99.90;;;;;;4824180;29;20082;-68
2022/09/12 11:31:14;;;;;;;22.02;17.48;;;22.60;99.90;;;;;;4822722;29;20563;-68
2022/09/12 11:33:50;;;;;;;23.17;17.48;;;22.40;99.90;;;;;;4823638;29;20051;-68
2022/09/12 11:36:50;;;;;;;21.25;17.15;;;22.40;99.90;;;;;;4801805;29;20464;-68
2022/09/12 11:39:21;;;;;;;19.65;15.85;;;22.50;99.90;;;;;;4807078;29;20111;-68
2022/09/12 11:41:55;;;;;;;22.73;16.63;;;22.60;99.90;;;;;;4808376;29;20064;-67
2022/09/12 11:44:27;;;;;;;17.75;14.77;;;22.50;99.90;;;;;;4824656;29;20065;-67
2022/09/12 11:46:53;;;;;;;19.10;15.25;;;22.50;99.90;;;;;;4807844;29;20103;-68
2022/09/12 11:49:27;;;;;;;19.33;14.43;;;22.50;99.90;;;;;;4824769;29;20198;-67
2022/09/12 11:52:23;;;;;;;18.55;13.80;;;22.50;99.90;;;;;;4805958;29;20042;-67
2022/09/12 11:54:57;;;;;;;16.92;13.90;;;22.50;99.90;;;;;;4808199;29;20050;-67
2022/09/12 11:57:51;;;;;;;18.20;14.18;;;22.40;99.90;;;;;;4807884;29;20479;-67
2022/09/12 12:00:20;;;;;;;18.65;15.30;;;22.70;99.90;;;;;;4807804;29;20157;-67
2022/09/12 12:03:00;;;;;;;19.58;16.02;;;22.80;99.90;;;;;;4792532;29;20445;-68
2022/09/12 12:05:32;;;;;;;17.23;14.18;;;22.90;99.90;;;;;;4800328;29;20388;-67
2022/09/12 12:08:00;;;;;;;19.85;13.48;;;23.00;99.90;;;;;;4796874;29;20068;-68
2022/09/12 12:10:35;;;;;;;19.02;15.35;;;23.10;99.90;;;;;;4797407;29;20054;-68
2022/09/12 12:13:07;;;;;;;16.40;14.18;;;23.20;99.90;;;;;;4806523;29;20054;-67
2022/09/12 12:15:36;;;;;;;24.48;15.98;;;23.30;99.90;;;;;;4815474;29;20051;-67
2022/09/12 12:18:17;;;;;;;26.58;16.80;;;23.30;99.90;;;;;;4805764;29;20054;-67
2022/09/12 12:20:43;;;;;;;16.90;12.55;;;23.30;99.90;;;;;;4789338;29;20489;-68
2022/09/12 12:23:33;;;;;;;16.55;11.90;;;23.30;99.90;;;;;;4805838;29;20068;-68
2022/09/12 12:26:00;;;;;;;13.60;12.07;;;23.40;99.90;;;;;;4806586;29;20065;-68
2022/09/12 12:28:51;;;;;;;13.30;10.27;;;23.40;99.90;;;;;;4823770;29;20514;-67
2022/09/12 12:31:18;;;;;;;15.52;11.57;;;23.50;99.90;;;;;;4821710;29;20141;-68
2022/09/12 12:33:43;;;;;;;14.55;11.63;;;23.60;99.90;;;;;;4814067;29;20072;-67
2022/09/12 12:36:27;;;;;;;13.25;11.70;;;23.60;99.90;;;;;;4805207;29;20062;-67
2022/09/12 12:38:52;;;;;;;18.73;11.98;;;23.60;99.90;;;;;;4808827;29;20327;-67
2022/09/12 12:41:18;;;;;;;15.98;11.95;;;23.60;99.90;;;;;;4824342;29;20114;-67
2022/09/12 12:43:51;;;;;;;19.48;12.27;;;23.60;99.90;;;;;;4823561;29;20496;-67
2022/09/12 12:46:25;;;;;;;14.13;11.00;;;23.60;99.90;;;;;;4807433;29;20133;-66
2022/09/12 12:49:19;;;;;;;11.43;9.48;;;23.70;99.90;;;;;;4820378;29;20121;-67
2022/09/12 12:51:55;;;;;;;9.25;8.27;;;23.50;99.90;;;;;;4812998;29;20101;-67
2022/09/12 12:54:40;;;;;;;9.70;8.70;;;23.50;99.90;;;;;;4822413;29;20046;-66
2022/09/12 12:57:12;;;;;;;12.25;10.63;;;23.60;99.90;;;;;;4823010;29;20043;-66
2022/09/12 13:00:05;;;;;;;7.35;6.25;;;23.60;99.90;;;;;;4807228;29;20161;-66
2022/09/12 13:02:51;;;;;;;8.15;5.28;;;23.70;99.90;;;;;;4822453;29;20392;-66
2022/09/12 13:05:20;;;;;;;5.57;4.72;;;23.70;99.90;;;;;;4819243;29;20051;-67
2022/09/12 13:07:51;;;;;;;7.90;6.35;;;23.70;99.90;;;;;;4803546;29;20557;-68
2022/09/12 13:10:24;;;;;;;6.57;5.63;;;23.70;99.90;;;;;;4802697;29;20046;-66
2022/09/12 13:12:50;;;;;;;6.38;5.78;;;23.70;99.90;;;;;;4820422;29;20487;-66
2022/09/12 13:15:34;;;;;;;6.50;5.43;;;23.80;99.90;;;;;;4806883;29;20054;-66
2022/09/12 13:18:25;;;;;;;6.00;5.40;;;23.80;98.50;;;;;;4816829;29;20118;-67
2022/09/12 13:20:53;;;;;;;9.30;5.60;;;23.80;99.90;;;;;;4802007;29;20054;-67
2022/09/12 13:23:41;;;;;;;6.63;5.93;;;23.80;97.60;;;;;;4825695;29;20510;-67
2022/09/12 13:26:33;;;;;;;7.13;5.30;;;23.70;98.80;;;;;;4801763;29;20054;-67
2022/09/12 13:29:26;;;;;;;;;;;23.70;97.10;;;;;;4810301;29;20043;-67
2022/09/12 13:31:58;;;;;;;5.60;5.10;;;23.80;95.30;;;;;;4788388;29;20366;-67
2022/09/12 13:34:33;;;;;;;7.25;6.53;;;23.70;98.90;;;;;;4796945;29;20129;-67
2022/09/12 13:37:31;;;;;;;7.82;5.53;;;23.70;94.10;;;;;;4824511;29;20061;-67
2022/09/12 13:40:28;;;;;;;8.70;6.15;;;23.80;99.40;;;;;;4809549;29;20069;-67
2022/09/12 13:43:20;;;;;;;6.75;6.05;;;23.90;99.10;;;;;;4824452;29;20055;-67
2022/09/12 13:46:16;;;;;;;5.80;5.20;;;24.00;98.10;;;;;;4809632;29;20054;-66
2022/09/12 13:48:42;;;;;;;8.82;5.80;;;24.00;99.90;;;;;;4809879;29;20144;-66
2022/09/12 13:51:37;;;;;;;9.85;6.45;;;24.10;99.90;;;;;;4809883;29;20072;-66
2022/09/12 13:54:04;;;;;;;6.28;5.25;;;24.10;94.60;;;;;;4825055;29;20461;-66
2022/09/12 13:56:30;;;;;;;6.90;5.50;;;24.00;97.10;;;;;;4808379;29;20054;-66
2022/09/12 13:59:12;;;;;;;7.53;5.47;;;24.00;97.10;;;;;;4801077;29;20059;-65
2022/09/12 14:01:47;;;;;;;7.85;6.72;;;24.00;96.20;;;;;;4818766;29;20191;-66
2022/09/12 14:07:24;;;;;;;11.70;5.60;;;23.90;94.90;;;;;;4808737;29;20480;-65
2022/09/12 14:09:58;;;;;;;6.28;5.55;;;23.80;98.80;;;;;;4809253;29;20054;-66
2022/09/12 14:12:35;;;;;;;6.28;5.68;;;23.80;98.90;;;;;;4792367;29;20046;-66
2022/09/12 14:15:01;;;;;;;6.20;5.45;;;23.80;96.70;;;;;;4824864;29;20051;-66
2022/09/12 14:18:17;;;;;;;5.50;4.78;;;23.80;97.60;;;;;;4824310;29;20121;-67
2022/09/12 14:20:43;;;;;;;6.38;5.32;;;23.70;94.40;;;;;;4825244;29;20050;-66
2022/09/12 14:26:55;;;;;;;7.20;4.47;;;23.70;96.30;;;;;;4824620;29;20095;-66
2022/09/12 14:29:24;;;;;;;5.78;4.10;;;23.80;96.90;;;;;;4822663;29;20055;-68
2022/09/12 14:32:01;;;;;;;6.50;4.07;;;23.90;97.90;;;;;;4823674;29;20159;-65
2022/09/12 14:34:28;;;;;;;4.43;4.03;;;24.10;96.80;;;;;;4808075;29;20050;-66
2022/09/12 14:36:55;;;;;;;4.60;4.13;;;24.00;97.40;;;;;;4793924;29;20043;-66
2022/09/12 14:39:37;;;;;;;3.97;3.67;;;24.10;95.20;;;;;;4807037;29;20055;-66